Time;durP1;ratioP1;P1;durP2;ratioP2;P2;SDS_P1;SDS_P2;PMS_P1;PMS_P2;Temp;Humidity;BMP_temperature;BMP_pressure;BME280_temperature;BME280_humidity;BME280_pressure;Samples;Min_cycle;Max_cycle;Signal;HPM_P1;HPM_P2
2023/07/03 00:00:40;;;;;;;123.78;117.65;;;15.80;99.90;;;;;;5024971;28;20041;-69
2023/07/03 00:03:06;;;;;;;98.68;94.00;;;15.80;99.90;;;;;;5020559;28;20067;-70
2023/07/03 00:05:31;;;;;;;129.13;123.05;;;15.80;99.90;;;;;;5028080;28;20045;-70
2023/07/03 00:07:57;;;;;;;136.82;130.57;;;15.80;99.90;;;;;;5024114;28;20053;-70
2023/07/03 00:10:23;;;;;;;167.57;159.65;;;15.80;99.90;;;;;;5028562;28;20060;-69
2023/07/03 00:12:49;;;;;;;123.05;117.28;;;15.80;99.90;;;;;;5027616;28;20045;-70
2023/07/03 00:15:15;;;;;;;121.80;116.10;;;15.80;99.90;;;;;;5028633;28;20080;-70
2023/07/03 00:17:44;;;;;;;129.88;123.55;;;15.80;99.90;;;;;;5020473;28;20069;-70
2023/07/03 00:20:14;;;;;;;115.40;109.90;;;15.80;99.90;;;;;;5011508;28;20033;-69
2023/07/03 00:22:40;;;;;;;126.60;120.32;;;15.80;99.90;;;;;;5028203;28;20033;-69
2023/07/03 00:25:07;;;;;;;109.00;103.43;;;15.80;99.90;;;;;;5023526;28;20054;-69
2023/07/03 00:27:32;;;;;;;160.25;152.52;;;15.80;99.90;;;;;;5041460;28;20054;-70
2023/07/03 00:29:58;;;;;;;106.85;101.72;;;15.80;99.90;;;;;;5008172;28;20527;-70
2023/07/03 00:32:24;;;;;;;155.02;147.25;;;15.80;99.90;;;;;;5028539;28;20038;-70
2023/07/03 00:34:49;;;;;;;105.70;100.00;;;15.80;99.90;;;;;;5007609;28;20046;-69
2023/07/03 00:37:15;;;;;;;103.00;97.68;;;15.80;99.90;;;;;;5035381;28;20049;-70
2023/07/03 00:39:41;;;;;;;100.90;95.40;;;15.80;99.90;;;;;;5027368;28;20419;-70
2023/07/03 00:42:07;;;;;;;112.63;107.22;;;15.80;99.90;;;;;;5021559;28;20040;-70
2023/07/03 00:44:32;;;;;;;147.60;140.45;;;15.80;99.90;;;;;;5027521;28;20045;-69
2023/07/03 00:46:58;;;;;;;99.40;94.15;;;15.70;99.90;;;;;;5005341;28;20045;-70
2023/07/03 00:49:25;;;;;;;99.60;94.20;;;15.70;99.90;;;;;;5027862;28;20040;-69
2023/07/03 00:51:54;;;;;;;125.18;118.88;;;15.70;99.90;;;;;;5010234;28;20061;-70
2023/07/03 00:54:20;;;;;;;118.93;113.13;;;15.80;99.90;;;;;;5027846;28;20489;-70
2023/07/03 00:56:46;;;;;;;79.65;75.25;;;15.80;99.90;;;;;;5025363;28;20049;-70
2023/07/03 00:59:13;;;;;;;89.25;84.30;;;15.80;99.90;;;;;;5027365;28;20088;-69
2023/07/03 01:02:11;;;;;;;110.43;105.05;;;15.80;99.90;;;;;;5009615;28;20037;-70
2023/07/03 01:04:50;;;;;;;89.32;84.50;;;15.70;99.90;;;;;;5042941;28;20077;-70
2023/07/03 01:07:20;;;;;;;93.53;88.82;;;15.80;99.90;;;;;;5021696;28;20096;-69
2023/07/03 01:09:51;;;;;;;88.15;83.28;;;15.80;99.90;;;;;;5034700;28;20046;-70
2023/07/03 01:12:20;;;;;;;70.32;66.57;;;15.70;99.90;;;;;;5042348;28;20040;-69
2023/07/03 01:14:47;;;;;;;89.88;85.38;;;15.80;99.90;;;;;;5043327;28;20061;-70
2023/07/03 01:17:14;;;;;;;96.18;91.13;;;15.90;99.90;;;;;;5023326;28;20556;-70
2023/07/03 01:19:43;;;;;;;89.30;84.32;;;15.80;99.90;;;;;;5021258;28;20124;-70
2023/07/03 01:23:03;;;;;;;82.28;77.85;;;15.80;99.90;;;;;;5026008;28;20042;-70
2023/07/03 01:25:31;;;;;;;84.93;80.47;;;15.80;99.90;;;;;;4971963;28;20054;-70
2023/07/03 01:27:58;;;;;;;96.70;91.72;;;15.80;99.90;;;;;;5020377;28;20052;-70
2023/07/03 01:30:27;;;;;;;125.55;119.43;;;15.70;99.90;;;;;;5018785;28;20059;-70
2023/07/03 01:32:54;;;;;;;110.30;104.53;;;15.70;99.90;;;;;;5028184;28;20045;-70
2023/07/03 01:35:21;;;;;;;138.55;131.88;;;15.70;99.90;;;;;;5021095;28;20042;-70
2023/07/03 01:37:50;;;;;;;141.13;134.80;;;15.70;99.90;;;;;;5026631;28;20049;-69
2023/07/03 01:40:21;;;;;;;122.63;116.65;;;15.70;99.90;;;;;;5027031;28;20037;-70
2023/07/03 01:42:47;;;;;;;149.57;142.68;;;15.60;99.90;;;;;;5023369;28;20060;-69
2023/07/03 01:45:13;;;;;;;115.85;110.15;;;15.60;99.90;;;;;;5038435;28;20061;-70
2023/07/03 01:47:39;;;;;;;130.75;124.45;;;15.50;99.90;;;;;;5028222;28;20060;-69
2023/07/03 01:50:13;;;;;;;114.10;108.75;;;15.40;99.90;;;;;;5025049;28;20041;-70
2023/07/03 01:52:41;;;;;;;94.93;90.30;;;15.40;99.90;;;;;;5031949;28;20041;-70
2023/07/03 01:55:10;;;;;;;92.28;87.93;;;15.40;99.90;;;;;;5022203;28;20115;-71
2023/07/03 01:57:56;;;;;;;94.13;88.97;;;15.30;99.90;;;;;;5022051;28;20117;-69
2023/07/03 02:00:35;;;;;;;93.53;89.18;;;15.30;99.90;;;;;;5026385;28;20092;-70
2023/07/03 02:03:06;;;;;;;91.38;86.40;;;15.30;99.90;;;;;;5010199;28;20049;-69
2023/07/03 02:05:34;;;;;;;96.63;91.88;;;15.20;99.90;;;;;;5021065;28;20064;-70
2023/07/03 02:08:02;;;;;;;96.90;92.03;;;15.30;99.90;;;;;;5009754;28;20493;-70
2023/07/03 02:10:28;;;;;;;95.78;90.82;;;15.20;99.90;;;;;;5026312;28;20114;-70
2023/07/03 02:12:53;;;;;;;104.53;99.35;;;15.20;99.90;;;;;;5016648;28;20132;-70
2023/07/03 02:15:19;;;;;;;105.13;100.05;;;15.20;99.90;;;;;;5025616;28;20051;-70
2023/07/03 02:17:45;;;;;;;91.45;87.03;;;15.20;99.90;;;;;;5026395;28;20149;-70
2023/07/03 02:20:14;;;;;;;95.25;90.68;;;15.10;99.90;;;;;;5025211;28;20099;-70
2023/07/03 02:22:43;;;;;;;88.82;84.38;;;15.00;99.90;;;;;;5023991;28;20494;-70
2023/07/03 02:25:13;;;;;;;84.88;80.53;;;14.90;99.90;;;;;;5026186;28;20084;-70
2023/07/03 02:27:42;;;;;;;113.53;108.10;;;14.90;99.90;;;;;;5017986;28;20064;-70
2023/07/03 02:30:08;;;;;;;132.38;125.72;;;14.90;99.90;;;;;;5025294;28;20049;-69
2023/07/03 02:32:36;;;;;;;89.50;84.90;;;14.90;99.90;;;;;;5025446;28;20041;-70
2023/07/03 02:35:02;;;;;;;96.15;91.57;;;14.80;99.90;;;;;;5025098;28;20045;-70
2023/07/03 02:37:27;;;;;;;129.30;123.38;;;14.80;99.90;;;;;;5004980;28;20076;-70
2023/07/03 02:39:53;;;;;;;107.03;101.93;;;14.80;99.90;;;;;;5025685;28;20073;-70
2023/07/03 02:42:19;;;;;;;142.75;136.45;;;14.80;99.90;;;;;;5025282;28;20141;-70
2023/07/03 02:44:44;;;;;;;136.82;130.48;;;14.70;99.90;;;;;;5038825;28;20067;-70
2023/07/03 02:47:10;;;;;;;138.25;131.82;;;14.70;99.90;;;;;;5025284;28;20699;-70
2023/07/03 02:49:35;;;;;;;155.35;148.48;;;14.70;99.90;;;;;;5025809;28;20371;-70
2023/07/03 02:52:01;;;;;;;131.93;125.80;;;14.60;99.90;;;;;;5024692;28;20045;-70
2023/07/03 02:54:27;;;;;;;136.43;130.23;;;14.60;99.90;;;;;;5011380;28;20042;-70
2023/07/03 02:56:52;;;;;;;130.27;124.07;;;14.60;99.90;;;;;;5021486;28;20045;-70
2023/07/03 02:59:18;;;;;;;110.97;105.78;;;14.50;99.90;;;;;;5037329;28;20501;-70
2023/07/03 03:01:44;;;;;;;115.68;110.32;;;14.40;99.90;;;;;;5025422;28;20041;-70
2023/07/03 03:04:10;;;;;;;127.88;122.30;;;14.40;99.90;;;;;;5009297;28;20045;-70
2023/07/03 03:06:36;;;;;;;119.72;114.18;;;14.30;99.90;;;;;;5023152;28;20425;-70
2023/07/03 03:09:02;;;;;;;126.30;120.53;;;14.20;99.90;;;;;;5025410;28;20126;-69
2023/07/03 03:11:28;;;;;;;172.70;165.18;;;14.20;99.90;;;;;;5024339;28;20056;-69
2023/07/03 03:13:53;;;;;;;115.90;110.47;;;14.10;99.90;;;;;;5025820;28;20049;-70
2023/07/03 03:16:19;;;;;;;116.10;110.82;;;14.00;99.90;;;;;;5035562;28;20091;-70
2023/07/03 03:18:47;;;;;;;129.77;123.93;;;13.90;99.90;;;;;;5040127;28;20048;-70
2023/07/03 03:21:15;;;;;;;143.02;136.45;;;13.90;99.90;;;;;;5025653;28;20452;-70
2023/07/03 03:23:40;;;;;;;138.63;132.50;;;13.80;99.90;;;;;;5025167;28;20124;-70
2023/07/03 03:26:07;;;;;;;131.40;125.20;;;13.80;99.90;;;;;;5020368;28;20446;-70
2023/07/03 03:28:33;;;;;;;134.25;128.13;;;13.70;99.90;;;;;;5040717;28;20060;-70
2023/07/03 03:30:59;;;;;;;124.25;118.65;;;13.70;99.90;;;;;;5024966;28;20053;-70
2023/07/03 03:33:25;;;;;;;136.43;130.43;;;13.60;99.90;;;;;;5022270;28;20056;-69
2023/07/03 03:35:51;;;;;;;138.73;132.43;;;13.50;99.90;;;;;;5009339;28;20033;-70
2023/07/03 03:38:16;;;;;;;146.18;139.50;;;13.50;99.90;;;;;;5026744;28;20083;-70
2023/07/03 03:40:56;;;;;;;146.00;139.50;;;13.50;99.90;;;;;;5023179;28;20037;-70
2023/07/03 03:43:22;;;;;;;144.25;137.75;;;13.50;99.90;;;;;;5044798;28;20053;-70
2023/07/03 03:45:59;;;;;;;142.93;136.50;;;13.50;99.90;;;;;;5042675;28;20041;-70
2023/07/03 03:48:26;;;;;;;141.88;135.52;;;13.50;99.90;;;;;;5026565;28;20401;-70
2023/07/03 03:50:52;;;;;;;139.60;133.30;;;13.50;99.90;;;;;;5024290;28;20445;-70
2023/07/03 03:53:18;;;;;;;142.70;136.20;;;13.50;99.90;;;;;;5029482;28;20465;-70
2023/07/03 03:55:48;;;;;;;138.98;132.93;;;13.50;99.90;;;;;;5027088;28;20352;-70
2023/07/03 03:58:15;;;;;;;208.68;199.40;;;13.50;99.90;;;;;;5019650;28;20424;-70
2023/07/03 04:00:41;;;;;;;156.25;149.10;;;13.40;99.90;;;;;;5028370;28;20133;-70
2023/07/03 04:03:07;;;;;;;144.52;138.43;;;13.50;99.90;;;;;;5028435;28;20128;-70
2023/07/03 04:05:33;;;;;;;149.07;142.35;;;13.50;99.90;;;;;;5027482;28;20120;-70
2023/07/03 04:07:58;;;;;;;174.98;167.18;;;13.50;99.90;;;;;;5024180;28;20494;-70
2023/07/03 04:10:24;;;;;;;156.32;148.88;;;13.50;99.90;;;;;;5041203;28;20053;-70
2023/07/03 04:12:51;;;;;;;165.13;157.55;;;13.60;99.90;;;;;;5028533;28;20107;-70
2023/07/03 04:15:16;;;;;;;177.38;169.57;;;13.60;99.90;;;;;;5020188;28;20046;-70
2023/07/03 04:17:42;;;;;;;143.60;137.30;;;13.60;99.90;;;;;;5027914;28;20120;-69
2023/07/03 04:20:13;;;;;;;200.48;191.68;;;13.70;99.90;;;;;;5027992;28;20033;-70
2023/07/03 04:22:40;;;;;;;263.35;251.50;;;13.70;99.90;;;;;;5038226;28;20038;-69
2023/07/03 04:25:07;;;;;;;197.15;188.57;;;13.70;99.90;;;;;;5027424;28;20045;-70
2023/07/03 04:27:33;;;;;;;164.32;157.13;;;13.80;99.90;;;;;;5010373;28;20045;-70
2023/07/03 04:29:58;;;;;;;227.40;215.98;;;13.80;99.90;;;;;;5020215;28;20052;-70
2023/07/03 04:32:24;;;;;;;160.30;152.95;;;13.80;99.90;;;;;;5027427;28;20091;-70
2023/07/03 04:34:50;;;;;;;154.50;147.38;;;13.90;99.90;;;;;;5028321;28;20045;-70
2023/07/03 04:37:15;;;;;;;179.40;171.23;;;13.90;99.90;;;;;;5023365;28;20781;-70
2023/07/03 04:39:41;;;;;;;159.02;151.70;;;13.90;99.90;;;;;;5011628;28;20474;-70
2023/07/03 04:42:07;;;;;;;170.23;162.32;;;14.00;99.90;;;;;;5028130;28;20513;-70
2023/07/03 04:44:33;;;;;;;153.93;147.30;;;14.10;99.90;;;;;;5014555;28;20129;-70
2023/07/03 04:47:04;;;;;;;131.07;125.03;;;14.20;99.90;;;;;;5028474;28;20103;-70
2023/07/03 04:49:31;;;;;;;153.15;146.27;;;14.20;99.90;;;;;;5027573;28;20052;-70
2023/07/03 04:51:58;;;;;;;127.45;121.75;;;14.20;99.90;;;;;;5027099;28;20482;-70
2023/07/03 04:54:27;;;;;;;119.03;113.63;;;14.20;99.90;;;;;;5026002;28;20084;-70
2023/07/03 04:56:53;;;;;;;136.63;130.10;;;14.30;99.90;;;;;;5027942;28;20052;-70
2023/07/03 04:59:19;;;;;;;163.13;156.15;;;14.40;99.90;;;;;;5023927;28;20034;-69
2023/07/03 05:01:45;;;;;;;134.95;128.65;;;14.40;99.90;;;;;;5026950;28;20049;-70
2023/07/03 05:04:11;;;;;;;159.98;152.88;;;14.50;99.90;;;;;;5027212;28;20413;-70
2023/07/03 05:06:37;;;;;;;121.03;115.25;;;14.60;99.90;;;;;;5027174;28;20047;-70
2023/07/03 05:09:03;;;;;;;112.20;106.68;;;14.70;99.90;;;;;;5010817;28;20061;-70
2023/07/03 05:11:29;;;;;;;118.53;113.22;;;14.80;99.90;;;;;;5022349;28;20042;-70
2023/07/03 05:13:56;;;;;;;112.00;106.88;;;14.90;99.90;;;;;;5026693;28;20125;-70
2023/07/03 05:16:22;;;;;;;116.43;110.90;;;15.00;99.90;;;;;;5010584;28;20497;-70
2023/07/03 05:18:47;;;;;;;109.22;104.18;;;15.20;99.90;;;;;;5004825;28;20052;-70
2023/07/03 05:21:13;;;;;;;115.32;109.88;;;15.30;99.90;;;;;;5023802;28;20049;-70
2023/07/03 05:23:39;;;;;;;109.43;104.18;;;15.50;99.90;;;;;;5026859;28;20064;-70
2023/07/03 05:26:05;;;;;;;124.55;118.78;;;15.60;99.90;;;;;;5022541;28;20045;-70
2023/07/03 05:28:31;;;;;;;111.60;106.43;;;15.70;99.90;;;;;;5027129;28;20072;-70
2023/07/03 05:30:58;;;;;;;113.18;107.65;;;15.80;99.90;;;;;;5025247;28;20056;-70
2023/07/03 05:33:25;;;;;;;120.95;115.18;;;15.80;99.90;;;;;;5019509;28;20133;-69
2023/07/03 05:35:51;;;;;;;106.80;101.72;;;15.70;99.90;;;;;;5038724;28;20037;-70
2023/07/03 05:38:17;;;;;;;122.95;117.18;;;15.60;99.90;;;;;;5026780;28;20069;-70
2023/07/03 05:40:44;;;;;;;131.68;125.60;;;15.50;99.90;;;;;;5025537;28;20509;-70
2023/07/03 05:43:10;;;;;;;125.38;119.55;;;15.40;99.90;;;;;;5024306;28;20064;-70
2023/07/03 05:45:35;;;;;;;122.85;117.32;;;15.30;99.90;;;;;;5026829;28;20045;-70
2023/07/03 05:48:02;;;;;;;125.47;119.63;;;15.20;99.90;;;;;;5025981;28;20409;-70
2023/07/03 05:50:28;;;;;;;132.20;125.80;;;15.20;99.90;;;;;;5024871;28;20497;-70
2023/07/03 05:52:54;;;;;;;151.80;145.32;;;15.20;99.90;;;;;;5002977;28;20051;-70
2023/07/03 05:55:19;;;;;;;136.20;129.82;;;15.10;99.90;;;;;;5026709;28;20417;-70
2023/07/03 05:57:45;;;;;;;170.95;163.23;;;15.20;99.90;;;;;;5022975;28;20056;-70
2023/07/03 06:00:14;;;;;;;126.57;120.75;;;15.30;99.90;;;;;;5026697;28;20037;-70
2023/07/03 06:02:42;;;;;;;233.65;223.30;;;15.50;99.90;;;;;;5009509;28;20041;-70
2023/07/03 06:05:09;;;;;;;176.07;168.60;;;15.80;99.90;;;;;;5022218;28;20041;-69
2023/07/03 06:07:34;;;;;;;70.50;66.80;;;16.10;99.90;;;;;;5022373;28;20044;-70
2023/07/03 06:10:00;;;;;;;93.40;88.63;;;16.60;99.90;;;;;;5023797;28;20041;-70
2023/07/03 06:12:29;;;;;;;117.28;111.93;;;16.90;99.90;;;;;;5019692;28;20042;-71
2023/07/03 06:14:59;;;;;;;66.65;63.33;;;17.10;99.90;;;;;;5032828;28;20461;-70
2023/07/03 06:17:26;;;;;;;185.85;177.68;;;17.00;99.90;;;;;;5022645;28;20421;-70
2023/07/03 06:19:52;;;;;;;184.48;176.32;;;16.90;99.90;;;;;;5019686;28;20044;-70
2023/07/03 06:22:18;;;;;;;187.45;178.45;;;16.90;99.90;;;;;;5022868;28;20045;-70
2023/07/03 06:24:44;;;;;;;141.10;134.80;;;17.00;99.90;;;;;;5008942;28;20087;-70
2023/07/03 06:27:10;;;;;;;96.22;91.57;;;17.30;99.90;;;;;;5024427;28;20049;-70
2023/07/03 06:29:35;;;;;;;121.68;116.05;;;17.80;99.90;;;;;;4994457;28;20041;-70
2023/07/03 06:32:01;;;;;;;97.68;93.13;;;17.90;99.90;;;;;;5007449;28;20068;-70
2023/07/03 06:34:28;;;;;;;84.38;80.55;;;17.70;99.90;;;;;;5017541;28;20037;-70
2023/07/03 06:36:53;;;;;;;86.32;81.95;;;17.50;99.90;;;;;;5037619;28;20053;-70
2023/07/03 06:39:19;;;;;;;74.43;70.82;;;17.40;99.90;;;;;;5023094;28;20045;-70
2023/07/03 06:41:45;;;;;;;86.80;82.53;;;17.10;99.90;;;;;;5020353;28;20501;-70
2023/07/03 06:44:13;;;;;;;79.22;75.45;;;17.00;99.90;;;;;;5031171;28;20052;-70
2023/07/03 06:46:39;;;;;;;75.50;72.05;;;16.90;99.90;;;;;;5024948;28;20134;-70
2023/07/03 06:49:05;;;;;;;110.35;105.07;;;16.70;99.90;;;;;;5041096;28;20048;-70
2023/07/03 06:51:31;;;;;;;138.40;132.10;;;16.50;99.90;;;;;;5015720;28;20049;-70
2023/07/03 06:53:56;;;;;;;142.68;136.45;;;16.30;99.90;;;;;;5014321;28;20126;-70
2023/07/03 06:56:23;;;;;;;102.25;97.45;;;16.10;99.90;;;;;;5021366;28;20520;-70
2023/07/03 06:58:50;;;;;;;94.97;90.60;;;16.00;99.90;;;;;;5018413;28;20406;-71
2023/07/03 07:01:21;;;;;;;79.85;75.85;;;15.90;99.90;;;;;;5019826;28;20034;-71
2023/07/03 07:03:48;;;;;;;77.63;73.68;;;15.90;99.90;;;;;;5023430;28;20046;-71
2023/07/03 07:06:16;;;;;;;108.65;103.35;;;15.90;99.90;;;;;;5021995;28;20049;-71
2023/07/03 07:08:43;;;;;;;90.03;85.70;;;15.90;99.90;;;;;;5002402;28;20053;-70
2023/07/03 07:11:15;;;;;;;79.88;76.00;;;16.00;99.90;;;;;;5026128;28;20126;-72
2023/07/03 07:13:43;;;;;;;84.30;80.32;;;16.10;99.90;;;;;;5011319;28;20048;-71
2023/07/03 07:16:21;;;;;;;88.78;83.95;;;16.40;99.90;;;;;;5013696;28;20441;-71
2023/07/03 07:18:50;;;;;;;88.47;84.22;;;16.50;99.90;;;;;;5020913;28;20083;-71
2023/07/03 07:21:16;;;;;;;75.30;71.40;;;16.50;99.90;;;;;;5024345;28;20118;-70
2023/07/03 07:23:42;;;;;;;78.43;74.43;;;16.40;99.90;;;;;;5034927;28;20468;-71
2023/07/03 07:26:08;;;;;;;81.53;77.60;;;16.30;99.90;;;;;;5029787;28;20041;-70
2023/07/03 07:28:33;;;;;;;92.25;87.55;;;16.30;99.90;;;;;;5015024;28;20125;-71
2023/07/03 07:30:59;;;;;;;63.22;59.83;;;16.30;99.90;;;;;;5023690;28;20128;-71
2023/07/03 07:33:25;;;;;;;84.95;80.63;;;16.30;99.90;;;;;;5028686;28;20045;-71
2023/07/03 07:35:51;;;;;;;93.60;89.03;;;16.30;99.90;;;;;;5019347;28;20042;-71
2023/07/03 07:38:18;;;;;;;78.93;74.95;;;16.30;99.90;;;;;;5012903;28;20488;-71
2023/07/03 07:40:44;;;;;;;97.63;93.25;;;16.30;99.90;;;;;;5022624;28;20064;-71
2023/07/03 07:43:10;;;;;;;66.75;63.53;;;16.40;99.90;;;;;;5028767;28;20057;-71
2023/07/03 07:45:37;;;;;;;155.80;149.07;;;16.50;99.90;;;;;;5025577;28;20048;-70
2023/07/03 07:48:03;;;;;;;133.63;127.97;;;16.60;99.90;;;;;;5015610;28;20060;-70
2023/07/03 07:50:29;;;;;;;168.00;160.57;;;16.80;99.90;;;;;;5027552;28;20043;-70
2023/07/03 07:52:56;;;;;;;203.98;194.35;;;16.90;99.90;;;;;;5029107;28;20073;-71
2023/07/03 07:55:22;;;;;;;88.57;84.40;;;17.00;99.90;;;;;;5024544;28;20057;-71
2023/07/03 07:57:48;;;;;;;95.30;90.68;;;17.20;99.90;;;;;;5012481;28;20066;-71
2023/07/03 08:00:14;;;;;;;75.50;71.78;;;17.70;99.90;;;;;;5029621;28;20076;-71
2023/07/03 08:02:40;;;;;;;93.15;88.70;;;18.70;99.90;;;;;;5016614;28;20037;-71
2023/07/03 08:05:06;;;;;;;46.67;44.28;;;19.40;99.90;;;;;;5042972;28;20041;-71
2023/07/03 08:07:31;;;;;;;42.20;39.85;;;19.30;99.90;;;;;;5022968;28;20304;-70
2023/07/03 08:09:58;;;;;;;46.22;43.70;;;19.20;99.90;;;;;;5004645;28;20109;-70
2023/07/03 08:12:24;;;;;;;61.60;58.20;;;19.00;99.90;;;;;;5028616;28;20084;-70
2023/07/03 08:14:49;;;;;;;65.75;62.47;;;18.80;99.90;;;;;;5028143;28;20544;-70
2023/07/03 08:17:15;;;;;;;51.60;48.90;;;18.80;99.90;;;;;;5026879;28;20393;-71
2023/07/03 08:19:41;;;;;;;59.28;56.15;;;18.80;99.90;;;;;;5015009;28;20509;-70
2023/07/03 08:22:06;;;;;;;64.72;61.75;;;18.80;99.90;;;;;;5006052;28;20117;-71
2023/07/03 08:24:32;;;;;;;65.50;62.22;;;19.30;99.90;;;;;;5037912;28;20375;-72
2023/07/03 08:26:57;;;;;;;47.83;44.92;;;20.10;99.90;;;;;;5027855;28;20524;-71
2023/07/03 08:29:23;;;;;;;48.92;46.35;;;20.40;99.90;;;;;;5024809;28;20565;-71
2023/07/03 08:31:49;;;;;;;71.95;68.43;;;20.40;99.90;;;;;;5011913;28;20049;-72
2023/07/03 08:34:14;;;;;;;46.13;43.58;;;20.00;99.90;;;;;;5016824;28;20121;-70
2023/07/03 08:36:40;;;;;;;40.33;37.88;;;19.50;99.90;;;;;;5018624;28;20121;-71
2023/07/03 08:39:06;;;;;;;31.20;29.40;;;19.00;99.90;;;;;;5027846;28;20076;-71
2023/07/03 08:41:44;;;;;;;43.67;41.38;;;18.70;99.90;;;;;;5020875;28;20091;-71
2023/07/03 08:44:11;;;;;;;49.15;46.38;;;18.40;99.90;;;;;;5027474;28;20446;-70
2023/07/03 08:46:38;;;;;;;85.40;81.07;;;18.40;99.90;;;;;;5033494;28;20045;-71
2023/07/03 08:49:05;;;;;;;53.45;50.60;;;19.00;99.90;;;;;;5040005;28;20517;-70
2023/07/03 08:51:37;;;;;;;41.20;39.00;;;19.10;99.90;;;;;;5023373;28;20037;-70
2023/07/03 08:54:21;;;;;;;45.80;43.33;;;19.00;99.90;;;;;;5022787;28;20056;-70
2023/07/03 08:56:48;;;;;;;73.53;69.78;;;18.70;99.90;;;;;;5025542;28;20049;-71
2023/07/03 08:59:14;;;;;;;74.05;70.55;;;18.40;99.90;;;;;;5024623;28;20135;-70
2023/07/03 09:01:56;;;;;;;50.72;47.95;;;18.00;99.90;;;;;;5027186;28;20102;-70
2023/07/03 09:04:52;;;;;;;84.15;80.30;;;17.50;99.90;;;;;;5027113;28;20491;-70
2023/07/03 09:07:46;;;;;;;67.15;63.80;;;17.30;99.90;;;;;;5020512;28;20473;-71
2023/07/03 09:10:21;;;;;;;60.40;57.50;;;17.30;99.90;;;;;;5008804;28;20067;-71
2023/07/03 09:13:00;;;;;;;92.68;88.45;;;17.70;99.90;;;;;;5027325;28;20041;-71
2023/07/03 09:15:28;;;;;;;52.47;49.58;;;18.20;99.90;;;;;;5021968;28;20052;-71
2023/07/03 09:17:58;;;;;;;55.67;52.78;;;18.50;99.90;;;;;;5017387;28;20547;-70
2023/07/03 09:20:25;;;;;;;58.78;55.78;;;18.60;99.90;;;;;;5026647;28;20045;-70
2023/07/03 09:22:59;;;;;;;39.97;37.97;;;18.80;99.90;;;;;;5003154;28;20139;-71
2023/07/03 09:25:36;;;;;;;43.47;41.05;;;19.50;99.90;;;;;;5025931;28;20075;-69
2023/07/03 09:28:03;;;;;;;45.28;42.78;;;20.10;99.90;;;;;;5036554;28;20413;-69
2023/07/03 09:30:29;;;;;;;40.63;38.42;;;20.10;99.90;;;;;;5026469;28;20045;-70
2023/07/03 09:32:55;;;;;;;56.13;53.38;;;19.80;99.90;;;;;;5026295;28;20037;-70
2023/07/03 09:35:22;;;;;;;53.25;50.42;;;19.50;99.90;;;;;;5030542;28;20050;-70
2023/07/03 09:37:50;;;;;;;46.38;43.92;;;19.30;99.90;;;;;;5016126;28;20049;-71
2023/07/03 09:40:25;;;;;;;69.97;66.80;;;19.20;99.90;;;;;;5006987;28;20049;-70
2023/07/03 09:42:51;;;;;;;;;;;19.00;99.90;;;;;;5022537;28;20088;-70
2023/07/03 09:45:22;;;;;;;39.40;37.35;;;18.70;99.90;;;;;;5024626;28;20361;-69
2023/07/03 09:47:58;;;;;;;36.20;34.40;;;18.60;99.90;;;;;;5038132;28;20046;-70
2023/07/03 09:50:36;;;;;;;39.38;37.30;;;18.60;99.90;;;;;;5020002;28;20041;-70
2023/07/03 09:53:03;;;;;;;84.65;81.00;;;18.40;99.90;;;;;;5034736;28;20137;-69
2023/07/03 09:55:29;;;;;;;61.35;58.33;;;18.10;99.90;;;;;;5025444;28;20626;-69
2023/07/03 09:57:55;;;;;;;69.10;65.80;;;17.60;99.90;;;;;;5009010;28;20046;-70
2023/07/03 10:00:24;;;;;;;127.90;122.43;;;17.20;99.90;;;;;;5023034;28;20194;-69
2023/07/03 10:02:57;;;;;;;194.65;185.35;;;16.90;99.90;;;;;;5008835;28;20084;-69
2023/07/03 10:05:32;;;;;;;214.63;204.77;;;16.60;99.90;;;;;;5037538;28;20565;-69
2023/07/03 10:08:04;;;;;;;145.52;139.05;;;16.30;99.90;;;;;;5021279;28;20425;-69
2023/07/03 10:10:35;;;;;;;144.27;137.52;;;16.00;99.90;;;;;;5024403;28;20569;-68
2023/07/03 10:13:07;;;;;;;127.25;121.47;;;15.80;99.90;;;;;;5023196;28;20492;-69
2023/07/03 10:15:37;;;;;;;140.25;133.88;;;15.60;99.90;;;;;;5024737;28;20041;-69
2023/07/03 10:18:30;;;;;;;162.27;155.23;;;15.40;99.90;;;;;;5022792;28;20055;-68
2023/07/03 10:20:56;;;;;;;176.80;169.02;;;15.30;99.90;;;;;;5034570;28;20124;-69
2023/07/03 10:23:25;;;;;;;246.23;235.52;;;15.50;99.90;;;;;;5022448;28;20052;-69
2023/07/03 10:25:56;;;;;;;221.68;212.25;;;16.00;99.90;;;;;;5036117;28;20063;-70
2023/07/03 10:28:26;;;;;;;210.77;201.90;;;16.70;99.90;;;;;;5036255;28;20033;-69
2023/07/03 10:30:58;;;;;;;200.35;191.63;;;17.10;99.90;;;;;;5016096;28;20853;-69
2023/07/03 10:33:29;;;;;;;182.35;174.73;;;17.40;99.90;;;;;;5010825;28;20108;-70
2023/07/03 10:35:55;;;;;;;127.88;122.38;;;17.50;99.90;;;;;;5016352;28;20038;-70
2023/07/03 10:38:40;;;;;;;124.50;118.75;;;17.40;99.90;;;;;;5003355;28;20100;-70
2023/07/03 10:41:10;;;;;;;;;;;17.20;99.90;;;;;;5033726;28;20083;-69
2023/07/03 10:43:48;;;;;;;82.63;78.88;;;17.10;99.90;;;;;;5016337;28;19924;-69
2023/07/03 10:46:33;;;;;;;194.77;186.80;;;16.90;99.90;;;;;;5031162;28;20491;-70
2023/07/03 10:49:02;;;;;;;99.18;94.88;;;16.80;99.90;;;;;;5019496;28;20045;-70
2023/07/03 10:51:33;;;;;;;109.28;104.45;;;16.80;99.90;;;;;;5022302;28;20476;-70
2023/07/03 10:54:06;;;;;;;152.43;145.98;;;17.00;99.90;;;;;;5003607;28;20077;-70
2023/07/03 10:56:43;;;;;;;65.45;62.38;;;17.40;99.90;;;;;;5021129;28;20041;-70
2023/07/03 10:59:35;;;;;;;67.57;64.15;;;17.80;99.90;;;;;;5022639;28;20497;-70
2023/07/03 11:02:16;;;;;;;72.35;69.05;;;18.00;99.90;;;;;;5009374;28;20087;-69
2023/07/03 11:05:09;;;;;;;46.10;43.70;;;18.40;99.90;;;;;;5028654;28;20464;-70
2023/07/03 11:07:34;;;;;;;50.58;48.08;;;19.00;99.90;;;;;;5040335;28;20049;-70
2023/07/03 11:10:19;;;;;;;38.72;36.53;;;19.50;99.90;;;;;;5017096;28;20639;-69
2023/07/03 11:12:52;;;;;;;;;;;19.70;99.90;;;;;;5025355;28;20045;-71
2023/07/03 11:15:23;;;;;;;54.35;51.50;;;19.60;99.90;;;;;;5008512;28;19983;-70
2023/07/03 11:18:04;;;;;;;55.53;52.78;;;19.30;99.90;;;;;;5037929;28;20038;-71
2023/07/03 11:20:40;;;;;;;43.45;41.17;;;18.90;99.90;;;;;;5034050;28;20128;-71
2023/07/03 11:23:20;;;;;;;56.83;54.13;;;18.60;99.90;;;;;;5020255;28;20041;-71
2023/07/03 11:26:04;;;;;;;46.63;44.15;;;18.40;99.90;;;;;;5024063;28;20131;-71
2023/07/03 11:28:43;;;;;;;54.63;51.80;;;18.30;99.90;;;;;;5025742;28;20096;-70
2023/07/03 11:31:10;;;;;;;62.10;59.13;;;18.50;99.90;;;;;;5002461;28;20041;-70
2023/07/03 11:33:37;;;;;;;56.50;53.78;;;18.60;99.90;;;;;;5009045;28;20049;-70
2023/07/03 11:36:04;;;;;;;57.83;54.92;;;18.50;99.90;;;;;;5014706;28;20049;-70
2023/07/03 11:38:30;;;;;;;60.85;57.97;;;18.20;99.90;;;;;;5025527;28;20043;-70
2023/07/03 11:40:56;;;;;;;69.88;66.10;;;18.00;99.90;;;;;;5025007;28;20045;-70
2023/07/03 11:43:47;;;;;;;73.00;69.43;;;17.80;99.90;;;;;;5004393;28;20144;-69
2023/07/03 11:46:24;;;;;;;65.72;62.65;;;17.80;99.90;;;;;;5041641;28;20048;-70
2023/07/03 11:48:55;;;;;;;64.80;61.75;;;17.80;99.90;;;;;;5021077;28;20049;-70
2023/07/03 11:51:36;;;;;;;70.35;67.13;;;17.90;99.90;;;;;;5011559;28;20049;-70
2023/07/03 11:54:20;;;;;;;60.80;57.97;;;18.00;99.90;;;;;;5037027;28;20456;-70
2023/07/03 11:56:49;;;;;;;56.25;53.60;;;18.10;99.90;;;;;;5021226;28;20045;-70
2023/07/03 11:59:24;;;;;;;50.60;47.92;;;18.20;99.90;;;;;;5024609;28;20053;-70
2023/07/03 12:02:10;;;;;;;62.40;59.22;;;18.20;99.90;;;;;;5044474;28;20045;-70
2023/07/03 12:04:50;;;;;;;54.10;51.25;;;18.20;99.90;;;;;;5028706;28;20055;-70
2023/07/03 12:07:19;;;;;;;115.85;106.53;;;18.30;99.90;;;;;;5021962;28;20041;-70
2023/07/03 12:09:46;;;;;;;57.38;54.58;;;18.40;99.90;;;;;;5000571;28;20049;-70
2023/07/03 12:12:28;;;;;;;56.70;53.90;;;18.50;99.90;;;;;;5029230;28;20056;-70
2023/07/03 12:15:00;;;;;;;55.97;53.28;;;18.50;99.90;;;;;;5026441;28;20099;-71
2023/07/03 12:17:28;;;;;;;51.63;48.92;;;18.50;99.90;;;;;;5038241;28;20114;-70
2023/07/03 12:20:10;;;;;;;49.90;47.50;;;18.40;99.90;;;;;;5009295;28;20036;-70
2023/07/03 12:22:46;;;;;;;58.92;55.72;;;18.30;99.90;;;;;;5006822;28;20037;-69
2023/07/03 12:25:23;;;;;;;57.05;54.30;;;18.10;99.90;;;;;;5018095;28;20088;-71
2023/07/03 12:27:51;;;;;;;54.20;51.53;;;18.00;99.90;;;;;;5007603;28;20046;-71